createdAt,value
2019-04-29T00:01:35.540Z,4.40
2019-04-29T00:04:04.757Z,3.97
2019-04-29T00:06:33.733Z,4.53
2019-04-29T00:09:02.901Z,4.73
2019-04-29T00:11:32.581Z,4.63
2019-04-29T00:14:03.042Z,3.97
2019-04-29T00:16:38.516Z,5.50
2019-04-29T00:19:29.343Z,4.73
2019-04-29T00:21:59.336Z,3.80
2019-04-29T00:24:28.335Z,4.57
2019-04-29T00:26:57.363Z,4.33
2019-04-29T00:29:26.419Z,4.50
2019-04-29T00:31:55.326Z,4.00
2019-04-29T00:34:24.332Z,4.00
2019-04-29T00:37:00.845Z,3.77
2019-04-29T00:39:57.922Z,3.27
2019-04-29T00:42:51.584Z,3.20
2019-04-29T00:45:20.771Z,3.80
2019-04-29T00:47:49.859Z,3.20
2019-04-29T00:50:18.881Z,3.43
2019-04-29T00:52:48.081Z,3.90
2019-04-29T00:55:19.586Z,3.67
2019-04-29T00:57:48.543Z,3.80
2019-04-29T01:00:27.393Z,3.27
2019-04-29T01:02:56.273Z,2.93
2019-04-29T01:05:25.133Z,3.67
2019-04-29T01:07:54.239Z,2.83
2019-04-29T01:10:23.434Z,2.90
2019-04-29T01:12:52.398Z,2.93
2019-04-29T01:15:21.276Z,2.63
2019-04-29T01:17:50.294Z,2.83
2019-04-29T01:20:19.423Z,2.73
2019-04-29T01:22:48.622Z,2.77
2019-04-29T01:25:17.818Z,2.97
2019-04-29T01:28:05.859Z,3.03
2019-04-29T01:31:17.076Z,3.33
2019-04-29T01:33:48.187Z,2.63
2019-04-29T01:36:38.096Z,2.97
2019-04-29T01:39:09.922Z,3.30
2019-04-29T01:41:45.296Z,2.70
2019-04-29T01:44:14.824Z,3.83
2019-04-29T01:46:43.695Z,3.30
2019-04-29T01:49:12.721Z,4.70
2019-04-29T01:51:41.686Z,3.20
2019-04-29T01:54:10.885Z,3.27
2019-04-29T01:56:39.927Z,2.80
2019-04-29T01:59:08.919Z,3.40
2019-04-29T02:01:38.016Z,3.47
2019-04-29T02:04:07.216Z,3.17
2019-04-29T02:06:36.158Z,3.37
2019-04-29T02:09:10.326Z,3.80
2019-04-29T02:11:39.896Z,3.37
2019-04-29T02:14:08.996Z,3.03
2019-04-29T02:16:37.935Z,3.40
2019-04-29T02:19:06.920Z,3.77
2019-04-29T02:21:35.904Z,3.93
2019-04-29T02:24:17.393Z,4.50
2019-04-29T02:26:46.328Z,3.27
2019-04-29T02:29:15.222Z,3.57
2019-04-29T02:31:46.394Z,3.07
2019-04-29T02:34:15.341Z,3.13
2019-04-29T02:36:44.449Z,3.13
2019-04-29T02:39:32.958Z,3.60
2019-04-29T02:42:27.603Z,3.13
2019-04-29T02:45:00.628Z,2.43
2019-04-29T02:47:29.604Z,2.63
2019-04-29T02:49:58.681Z,3.10
2019-04-29T02:52:27.648Z,2.90
2019-04-29T02:54:59.445Z,2.77
2019-04-29T02:57:39.659Z,2.90
2019-04-29T03:00:19.229Z,4.00
2019-04-29T03:02:57.645Z,3.90
2019-04-29T03:05:28.859Z,3.53
2019-04-29T03:07:58.003Z,4.03
2019-04-29T03:10:27.181Z,4.60
2019-04-29T03:12:56.535Z,4.27
2019-04-29T03:15:31.635Z,4.57
2019-04-29T03:18:01.169Z,3.63
2019-04-29T03:20:35.628Z,4.50
2019-04-29T03:23:09.727Z,4.50
2019-04-29T03:25:38.777Z,4.47
2019-04-29T03:28:07.841Z,4.37
2019-04-29T03:30:36.853Z,5.03
2019-04-29T03:33:06.085Z,4.77
2019-04-29T03:35:35.089Z,4.37
2019-04-29T03:38:04.363Z,5.13
2019-04-29T03:40:33.452Z,5.20
2019-04-29T03:43:02.473Z,5.37
2019-04-29T03:45:31.452Z,4.67
2019-04-29T03:48:00.396Z,4.70
2019-04-29T03:50:29.365Z,5.20
2019-04-29T03:52:58.341Z,5.13
2019-04-29T03:55:38.795Z,5.57
2019-04-29T03:57:58.002Z,5.23
2019-04-29T04:00:27.125Z,5.50
2019-04-29T04:03:14.037Z,4.67
2019-04-29T04:05:59.428Z,5.13
2019-04-29T04:08:43.534Z,5.70
2019-04-29T04:11:12.529Z,4.67
2019-04-29T04:13:41.601Z,5.63
2019-04-29T04:16:14.569Z,6.07
2019-04-29T04:18:43.525Z,6.57
2019-04-29T04:21:12.462Z,5.77
2019-04-29T04:23:41.412Z,6.20
2019-04-29T04:26:10.439Z,6.23
2019-04-29T04:28:40.382Z,7.33
2019-04-29T04:31:09.354Z,6.27
2019-04-29T04:33:38.352Z,6.53
2019-04-29T04:36:07.376Z,7.60
2019-04-29T04:38:36.245Z,7.50
2019-04-29T04:41:08.081Z,6.23
2019-04-29T04:43:37.063Z,7.93
2019-04-29T04:46:06.160Z,7.03
2019-04-29T04:48:35.040Z,7.27
2019-04-29T04:51:04.074Z,7.17
2019-04-29T04:53:33.195Z,7.13
2019-04-29T04:56:02.315Z,6.83
2019-04-29T04:58:31.352Z,7.07
2019-04-29T05:01:00.390Z,6.90
2019-04-29T05:03:29.335Z,7.97
2019-04-29T05:05:58.327Z,8.33
2019-04-29T05:08:27.207Z,7.83
2019-04-29T05:10:59.148Z,8.33
2019-04-29T05:13:28.774Z,9.33
2019-04-29T05:15:57.932Z,6.10
2019-04-29T05:18:26.830Z,7.50
2019-04-29T05:20:55.720Z,7.07
2019-04-29T05:23:25.358Z,6.33
2019-04-29T05:25:54.686Z,7.20
2019-04-29T05:28:23.646Z,7.40
2019-04-29T05:30:52.608Z,6.23
2019-04-29T05:33:21.610Z,6.83
2019-04-29T05:36:01.953Z,6.90
2019-04-29T05:38:48.793Z,6.47
2019-04-29T05:41:18.439Z,6.70
2019-04-29T05:44:09.532Z,7.00
2019-04-29T05:46:42.913Z,6.67
2019-04-29T05:49:14.237Z,6.13
2019-04-29T05:52:03.260Z,6.00
2019-04-29T05:54:33.482Z,6.80
2019-04-29T05:57:02.720Z,7.73
2019-04-29T05:59:31.616Z,6.77
2019-04-29T06:02:01.241Z,6.43
2019-04-29T06:04:30.122Z,4.10
2019-04-29T06:06:59.125Z,6.07
2019-04-29T06:09:27.998Z,4.97
2019-04-29T06:11:56.971Z,5.77
2019-04-29T06:14:25.925Z,5.40
2019-04-29T06:16:57.741Z,5.97
2019-04-29T06:19:25.571Z,6.03
2019-04-29T06:21:54.519Z,6.03
2019-04-29T06:24:23.455Z,5.20
2019-04-29T06:26:52.591Z,5.40
2019-04-29T06:29:21.577Z,5.43
2019-04-29T06:31:53.398Z,5.27
2019-04-29T06:34:22.360Z,5.37
2019-04-29T06:36:51.331Z,5.73
2019-04-29T06:39:20.209Z,5.80
2019-04-29T06:41:49.263Z,5.43
2019-04-29T06:44:18.161Z,5.20
2019-04-29T06:46:50.281Z,5.63
2019-04-29T06:49:17.683Z,5.03
2019-04-29T06:51:46.673Z,5.10
2019-04-29T06:54:15.655Z,5.67
2019-04-29T06:56:44.736Z,5.27
2019-04-29T06:59:14.052Z,5.67
2019-04-29T07:01:43.056Z,5.33
2019-04-29T07:04:11.948Z,4.77
2019-04-29T07:06:40.915Z,4.80
2019-04-29T07:09:09.954Z,5.40
2019-04-29T07:11:38.929Z,6.43
2019-04-29T07:14:08.060Z,5.80
2019-04-29T07:16:37.043Z,5.33
2019-04-29T07:19:06.059Z,4.23
2019-04-29T07:21:35.113Z,5.63
2019-04-29T07:24:04.232Z,5.93
2019-04-29T07:26:33.179Z,5.60
2019-04-29T07:29:02.231Z,5.73
2019-04-29T07:31:33.196Z,6.17
2019-04-29T07:34:01.862Z,6.03
2019-04-29T07:36:30.761Z,6.77
2019-04-29T07:38:59.736Z,7.23
2019-04-29T07:41:28.703Z,6.33
2019-04-29T07:43:57.821Z,6.30
2019-04-29T07:46:36.421Z,6.83
2019-04-29T07:49:05.597Z,8.67
2019-04-29T07:51:34.709Z,7.53
2019-04-29T07:54:04.392Z,7.07
2019-04-29T07:56:33.386Z,7.90
2019-04-29T07:59:03.127Z,7.93
2019-04-29T08:01:32.970Z,7.27
2019-04-29T08:04:01.931Z,8.23
2019-04-29T08:06:32.379Z,8.47
2019-04-29T08:09:07.074Z,7.83
2019-04-29T08:11:32.597Z,9.20
2019-04-29T08:14:02.372Z,9.37
2019-04-29T08:16:35.837Z,8.73
2019-04-29T08:19:04.701Z,9.03
2019-04-29T08:21:33.017Z,10.10
2019-04-29T08:24:02.152Z,10.00
2019-04-29T08:26:33.605Z,9.70
2019-04-29T08:29:01.806Z,10.23
2019-04-29T08:31:30.759Z,11.37
2019-04-29T08:33:59.807Z,11.47
2019-04-29T08:36:28.848Z,11.57
2019-04-29T08:39:07.914Z,9.73
2019-04-29T08:41:29.868Z,9.73
2019-04-29T08:44:30.159Z,12.37
2019-04-29T08:47:17.163Z,10.07
2019-04-29T08:49:46.243Z,11.33
2019-04-29T08:52:15.517Z,9.97
2019-04-29T08:54:44.561Z,11.80
2019-04-29T08:57:13.646Z,11.43
2019-04-29T08:59:42.834Z,10.67
2019-04-29T09:02:11.820Z,11.60
2019-04-29T09:04:52.862Z,12.20
2019-04-29T09:07:12.747Z,10.77
2019-04-29T09:09:42.116Z,10.30
2019-04-29T09:12:11.179Z,8.07
2019-04-29T09:14:40.405Z,8.30
2019-04-29T09:17:20.238Z,7.13
2019-04-29T09:19:40.220Z,7.63
2019-04-29T09:22:10.844Z,7.07
2019-04-29T09:24:43.629Z,7.80
2019-04-29T09:27:18.163Z,7.03
2019-04-29T09:29:47.054Z,5.80
2019-04-29T09:32:16.439Z,8.00
2019-04-29T09:34:45.401Z,6.70
2019-04-29T09:37:14.291Z,5.77
2019-04-29T09:39:44.912Z,4.87
2019-04-29T09:42:24.290Z,5.70
2019-04-29T09:45:27.791Z,5.50
2019-04-29T09:47:56.723Z,5.50
2019-04-29T09:50:28.380Z,5.83
2019-04-29T09:52:56.447Z,5.20
2019-04-29T09:55:25.683Z,5.60
2019-04-29T09:57:54.643Z,5.20
2019-04-29T10:00:49.107Z,4.67
2019-04-29T10:03:37.157Z,4.47
2019-04-29T10:06:16.239Z,5.67
2019-04-29T10:08:45.261Z,5.37
2019-04-29T10:11:14.284Z,5.33
2019-04-29T10:13:43.248Z,5.03
2019-04-29T10:16:18.763Z,4.57
2019-04-29T10:18:52.865Z,4.63
2019-04-29T10:21:23.279Z,4.57
2019-04-29T10:23:52.855Z,4.50
2019-04-29T10:26:21.904Z,4.57
2019-04-29T10:28:55.640Z,4.63
2019-04-29T10:31:24.547Z,4.77
2019-04-29T10:33:54.920Z,4.73
2019-04-29T10:36:26.199Z,4.67
2019-04-29T10:38:56.543Z,4.77
2019-04-29T10:41:36.133Z,4.53
2019-04-29T10:44:25.289Z,4.10
2019-04-29T10:47:01.910Z,4.70
2019-04-29T10:49:39.097Z,4.63
2019-04-29T10:52:05.900Z,5.07
2019-04-29T10:54:35.603Z,4.23
2019-04-29T10:57:04.937Z,4.33
2019-04-29T10:59:36.424Z,4.17
2019-04-29T11:02:38.849Z,4.77
2019-04-29T11:05:44.567Z,3.77
2019-04-29T11:08:33.747Z,4.80
2019-04-29T11:11:04.731Z,4.50
2019-04-29T11:13:33.699Z,4.70
2019-04-29T11:16:02.688Z,4.60
2019-04-29T11:18:31.750Z,5.23
2019-04-29T11:21:00.844Z,4.43
2019-04-29T11:23:45.026Z,4.27
2019-04-29T11:26:48.547Z,4.90
2019-04-29T11:29:17.455Z,5.67
2019-04-29T11:31:49.119Z,4.50
2019-04-29T11:34:37.747Z,3.90
2019-04-29T11:37:09.798Z,4.00
2019-04-29T11:39:38.898Z,3.40
2019-04-29T11:42:09.879Z,4.80
2019-04-29T11:44:39.155Z,5.00
2019-04-29T11:47:08.033Z,5.10
2019-04-29T11:49:48.014Z,4.40
2019-04-29T11:52:17.240Z,4.47
2019-04-29T11:54:46.245Z,4.63
2019-04-29T11:57:24.598Z,4.40
2019-04-29T12:00:10.318Z,5.10
2019-04-29T12:02:46.956Z,4.43
2019-04-29T12:05:34.638Z,4.37
2019-04-29T12:08:11.172Z,4.73
2019-04-29T12:10:38.274Z,4.67
2019-04-29T12:13:08.500Z,4.17
2019-04-29T12:15:49.185Z,3.37
2019-04-29T12:18:33.958Z,3.77
2019-04-29T12:21:11.496Z,3.53
2019-04-29T12:23:40.497Z,4.03
2019-04-29T12:26:09.738Z,3.87
2019-04-29T12:28:42.720Z,3.57
2019-04-29T12:31:30.644Z,3.87
2019-04-29T12:34:14.072Z,3.70
2019-04-29T12:36:54.855Z,4.10
2019-04-29T12:39:42.735Z,3.53
2019-04-29T12:42:40.148Z,3.50
2019-04-29T12:45:35.376Z,3.93
2019-04-29T12:48:06.451Z,3.83
2019-04-29T12:50:35.183Z,3.53
2019-04-29T12:53:04.581Z,3.40
2019-04-29T12:55:45.081Z,3.30
2019-04-29T12:58:10.956Z,3.50
2019-04-29T13:00:47.534Z,3.83
2019-04-29T13:03:19.874Z,4.60
2019-04-29T13:06:24.117Z,3.90
2019-04-29T13:08:55.997Z,3.23
2019-04-29T13:11:36.119Z,3.73
2019-04-29T13:14:01.705Z,4.10
2019-04-29T13:16:50.837Z,4.97
2019-04-29T13:19:38.939Z,4.10
2019-04-29T13:22:10.508Z,4.17
2019-04-29T13:24:42.677Z,3.77
2019-04-29T13:27:16.340Z,4.43
2019-04-29T13:29:40.935Z,4.27
2019-04-29T13:32:10.059Z,4.30
2019-04-29T13:34:41.472Z,4.67
2019-04-29T13:37:18.409Z,4.27
2019-04-29T13:39:41.300Z,4.17
2019-04-29T13:42:15.305Z,4.33
2019-04-29T13:44:42.495Z,4.47
2019-04-29T13:47:30.942Z,4.90
2019-04-29T13:50:37.969Z,5.07
2019-04-29T13:52:52.494Z,5.37
2019-04-29T13:55:46.501Z,5.60
2019-04-29T13:57:54.790Z,9.17
2019-04-29T14:00:59.836Z,5.47
2019-04-29T14:03:36.830Z,5.90
2019-04-29T14:06:07.363Z,6.57
2019-04-29T14:08:36.343Z,7.17
2019-04-29T14:11:05.376Z,6.07
2019-04-29T14:13:34.364Z,7.90
2019-04-29T14:16:07.678Z,7.93
2019-04-29T14:18:35.923Z,7.33
2019-04-29T14:21:05.151Z,8.03
2019-04-29T14:23:34.300Z,8.90
2019-04-29T14:26:03.381Z,9.37
2019-04-29T14:28:32.596Z,10.50
2019-04-29T14:31:01.567Z,8.97
2019-04-29T14:33:36.055Z,9.57
2019-04-29T14:36:07.748Z,8.80
2019-04-29T14:38:40.492Z,10.47
2019-04-29T14:41:07.646Z,9.47
2019-04-29T14:44:04.845Z,13.17
2019-04-29T14:46:56.287Z,12.23
2019-04-29T14:49:39.727Z,12.50
2019-04-29T14:52:08.392Z,11.20
2019-04-29T14:54:41.727Z,12.33
2019-04-29T14:57:09.171Z,11.67
2019-04-29T14:59:38.806Z,14.53
2019-04-29T15:02:18.802Z,13.63
2019-04-29T15:04:48.551Z,13.70
2019-04-29T15:07:17.936Z,12.60
2019-04-29T15:09:57.795Z,15.53
2019-04-29T15:13:11.398Z,15.50
2019-04-29T15:16:03.836Z,14.43
2019-04-29T15:18:51.175Z,14.80
2019-04-29T15:21:45.213Z,12.53
2019-04-29T15:24:15.827Z,14.37
2019-04-29T15:26:44.551Z,13.57
2019-04-29T15:29:13.626Z,14.03
2019-04-29T15:31:46.931Z,13.50
2019-04-29T15:34:14.559Z,13.37
2019-04-29T15:36:43.775Z,11.40
2019-04-29T15:39:13.150Z,13.03
2019-04-29T15:41:42.618Z,15.00
2019-04-29T15:44:18.732Z,12.80
2019-04-29T15:46:46.860Z,13.10
2019-04-29T15:49:13.404Z,14.10
2019-04-29T15:51:44.135Z,12.83
2019-04-29T15:54:14.269Z,15.47
2019-04-29T15:56:43.478Z,14.27
2019-04-29T15:59:12.641Z,13.33
2019-04-29T16:01:42.426Z,14.37
2019-04-29T16:04:15.699Z,14.40
2019-04-29T16:07:02.404Z,13.10
2019-04-29T16:09:51.021Z,14.67
2019-04-29T16:14:48.625Z,13.00
2019-04-29T16:17:14.423Z,13.73
2019-04-29T16:19:43.315Z,14.07
2019-04-29T16:22:12.845Z,13.07
2019-04-29T16:24:42.820Z,13.63
2019-04-29T16:27:11.796Z,13.33
2019-04-29T16:29:40.727Z,12.60
2019-04-29T16:32:11.821Z,15.30
2019-04-29T16:34:46.858Z,14.90
2019-04-29T16:37:18.571Z,13.80
2019-04-29T16:39:42.651Z,13.40
2019-04-29T16:42:22.080Z,15.13
2019-04-29T16:44:51.069Z,14.37
2019-04-29T16:47:21.089Z,14.97
2019-04-29T16:49:50.182Z,14.60
2019-04-29T16:52:19.362Z,14.50
2019-04-29T16:54:48.405Z,13.40
2019-04-29T16:57:17.884Z,13.17
2019-04-29T16:59:46.795Z,12.97
2019-04-29T17:02:19.362Z,14.73
2019-04-29T17:04:46.836Z,14.87
2019-04-29T17:07:17.627Z,13.23
2019-04-29T17:09:58.436Z,13.93
2019-04-29T17:12:35.567Z,13.83
2019-04-29T17:15:05.142Z,13.23
2019-04-29T17:17:30.617Z,13.33
2019-04-29T17:19:59.616Z,13.00
2019-04-29T17:22:28.589Z,13.97
2019-04-29T17:24:57.688Z,12.90
2019-04-29T17:27:45.379Z,13.17
2019-04-29T17:30:38.409Z,14.17
2019-04-29T17:33:30.176Z,13.27
2019-04-29T17:35:19.388Z,12.23
2019-04-29T17:35:59.998Z,12.47
2019-04-29T17:38:29.134Z,12.73
2019-04-29T17:40:58.302Z,13.83
2019-04-29T17:43:49.683Z,14.23
2019-04-29T17:46:40.906Z,14.23
2019-04-29T17:49:22.182Z,13.77
2019-04-29T17:52:01.460Z,13.60
2019-04-29T17:54:28.880Z,13.67
2019-04-29T17:57:28.204Z,16.17
2019-04-29T18:00:21.793Z,12.63
2019-04-29T18:03:17.056Z,14.40
2019-04-29T18:05:57.090Z,14.67
2019-04-29T18:08:33.293Z,14.57
2019-04-29T18:11:06.459Z,14.37
2019-04-29T18:13:35.118Z,15.67
2019-04-29T18:16:17.454Z,16.47
2019-04-29T18:18:46.344Z,17.23
2019-04-29T18:21:43.447Z,16.63
2019-04-29T18:24:16.159Z,15.77
2019-04-29T18:26:58.569Z,15.50
2019-04-29T18:29:27.768Z,17.90
2019-04-29T18:32:00.482Z,15.87
2019-04-29T18:34:29.397Z,16.63
2019-04-29T18:37:00.466Z,15.23
2019-04-29T18:39:31.620Z,16.00
2019-04-29T18:42:03.158Z,15.33
2019-04-29T18:44:31.475Z,17.00
2019-04-29T18:47:00.511Z,16.70
2019-04-29T18:49:29.543Z,15.97
2019-04-29T18:52:02.121Z,15.87
2019-04-29T18:54:29.203Z,15.77
2019-04-29T18:56:58.271Z,16.13
2019-04-29T18:59:33.635Z,16.30
2019-04-29T19:02:00.998Z,14.63
2019-04-29T19:04:35.531Z,17.10
2019-04-29T19:07:05.438Z,15.73
2019-04-29T19:09:37.418Z,16.17
2019-04-29T19:12:06.704Z,15.57
2019-04-29T19:14:35.763Z,16.40
2019-04-29T19:17:05.164Z,17.73
2019-04-29T19:19:35.810Z,16.20
2019-04-29T19:22:09.095Z,14.67
2019-04-29T19:24:36.340Z,16.73
2019-04-29T19:27:09.848Z,16.93
2019-04-29T19:29:38.939Z,14.70
2019-04-29T19:32:08.466Z,16.50
2019-04-29T19:34:42.504Z,16.60
2019-04-29T19:37:08.236Z,15.30
2019-04-29T19:39:37.362Z,15.23
2019-04-29T19:42:06.505Z,16.90
2019-04-29T19:44:36.775Z,16.63
2019-04-29T19:47:06.023Z,15.87
2019-04-29T19:49:35.951Z,16.77
2019-04-29T19:52:05.307Z,15.70
2019-04-29T19:54:34.184Z,16.47
2019-04-29T19:57:06.125Z,15.93
2019-04-29T19:59:36.267Z,17.60
2019-04-29T20:02:09.581Z,17.30
2019-04-29T20:04:52.439Z,15.23
2019-04-29T20:07:21.492Z,15.77
2019-04-29T20:09:59.662Z,15.60
2019-04-29T20:12:22.439Z,14.47
2019-04-29T20:14:58.711Z,16.30
2019-04-29T20:17:38.531Z,15.30
2019-04-29T20:20:12.536Z,15.27
2019-04-29T20:22:46.312Z,15.70
2019-04-29T20:25:13.200Z,15.50
2019-04-29T20:27:43.748Z,15.80
2019-04-29T20:30:18.855Z,12.93
2019-04-29T20:32:46.052Z,14.90
2019-04-29T20:35:15.883Z,14.67
2019-04-29T20:37:47.439Z,14.63
2019-04-29T20:40:16.483Z,16.60
2019-04-29T20:42:48.934Z,15.40
2019-04-29T20:45:20.148Z,16.10
2019-04-29T20:47:47.655Z,17.17
2019-04-29T20:50:16.955Z,15.40
2019-04-29T20:53:05.873Z,15.03
2019-04-29T20:55:36.589Z,16.63
2019-04-29T20:58:06.695Z,15.87
2019-04-29T21:00:38.466Z,13.93
2019-04-29T21:03:09.345Z,15.40
2019-04-29T21:05:47.428Z,15.50
2019-04-29T21:08:15.018Z,15.70
2019-04-29T21:10:48.834Z,15.63
2019-04-29T21:13:20.226Z,14.97
2019-04-29T21:16:00.638Z,16.47
2019-04-29T21:18:29.704Z,15.47
2019-04-29T21:20:59.677Z,16.60
2019-04-29T21:23:31.536Z,16.30
2019-04-29T21:26:00.559Z,16.23
2019-04-29T21:28:31.549Z,16.30
2019-04-29T21:31:01.624Z,16.70
2019-04-29T21:33:31.266Z,15.47
2019-04-29T21:36:26.454Z,15.87
2019-04-29T21:39:25.135Z,16.10
2019-04-29T21:42:19.279Z,15.67
2019-04-29T21:44:48.248Z,15.30
2019-04-29T21:47:17.753Z,15.80
2019-04-29T21:49:49.912Z,15.57
2019-04-29T21:52:19.700Z,16.27
2019-04-29T21:54:49.180Z,14.67
2019-04-29T21:57:23.727Z,15.43
2019-04-29T21:59:49.207Z,16.63
2019-04-29T22:02:19.057Z,16.13
2019-04-29T22:04:48.163Z,15.90
2019-04-29T22:07:17.224Z,15.13
2019-04-29T22:09:50.070Z,16.03
2019-04-29T22:12:20.080Z,15.73
2019-04-29T22:14:52.505Z,17.30
2019-04-29T22:17:18.595Z,15.90
2019-04-29T22:19:47.587Z,16.03
2019-04-29T22:22:16.553Z,16.23
2019-04-29T22:24:45.890Z,17.63
2019-04-29T22:27:16.175Z,15.07
2019-04-29T22:29:47.293Z,14.63
2019-04-29T22:32:21.293Z,15.77
2019-04-29T22:34:54.427Z,16.60
2019-04-29T22:37:21.495Z,14.40
2019-04-29T22:39:51.441Z,15.47
2019-04-29T22:42:45.767Z,18.03
2019-04-29T22:45:17.977Z,16.27
2019-04-29T22:47:48.136Z,17.33
2019-04-29T22:50:18.030Z,17.07
2019-04-29T22:52:47.117Z,18.87
2019-04-29T22:55:16.186Z,17.67
2019-04-29T22:57:46.891Z,17.27
2019-04-29T23:00:18.383Z,17.50
2019-04-29T23:02:49.663Z,19.43
2019-04-29T23:05:18.664Z,17.57
2019-04-29T23:07:52.922Z,18.20
2019-04-29T23:10:24.150Z,17.50
2019-04-29T23:12:53.984Z,17.83
2019-04-29T23:15:23.674Z,16.73
2019-04-29T23:17:52.472Z,16.10
2019-04-29T23:20:36.231Z,16.43
2019-04-29T23:23:10.436Z,17.40
2019-04-29T23:25:45.551Z,18.50
2019-04-29T23:28:14.783Z,19.83
2019-04-29T23:30:47.733Z,17.87
2019-04-29T23:33:22.699Z,17.57
2019-04-29T23:35:46.533Z,17.10
2019-04-29T23:38:15.571Z,19.07
2019-04-29T23:40:44.675Z,17.80
2019-04-29T23:43:15.455Z,19.03
2019-04-29T23:45:44.998Z,18.83
2019-04-29T23:48:14.285Z,17.50
2019-04-29T23:50:43.247Z,16.57
2019-04-29T23:53:12.178Z,18.57
2019-04-29T23:55:41.383Z,19.07
2019-04-29T23:58:19.272Z,18.63
